sensor_id;sensor_type;location;lat;lon;timestamp;temperature;humidity
22787;DHT22;63134;52.020;4.714;2022-12-07T00:00:50;6.90;94.50
22787;DHT22;63134;52.020;4.714;2022-12-07T00:03:37;7.00;94.50
22787;DHT22;63134;52.020;4.714;2022-12-07T00:06:23;7.10;94.60
22787;DHT22;63134;52.020;4.714;2022-12-07T00:09:12;7.10;94.70
22787;DHT22;63134;52.020;4.714;2022-12-07T00:11:59;7.20;94.60
22787;DHT22;63134;52.020;4.714;2022-12-07T00:14:44;7.20;94.50
22787;DHT22;63134;52.020;4.714;2022-12-07T00:17:30;7.20;94.50
22787;DHT22;63134;52.020;4.714;2022-12-07T00:20:16;7.20;94.50
22787;DHT22;63134;52.020;4.714;2022-12-07T00:23:04;7.20;94.50
22787;DHT22;63134;52.020;4.714;2022-12-07T00:25:49;7.20;94.30
22787;DHT22;63134;52.020;4.714;2022-12-07T00:28:34;7.10;94.10
22787;DHT22;63134;52.020;4.714;2022-12-07T00:31:25;7.00;93.90
22787;DHT22;63134;52.020;4.714;2022-12-07T00:34:21;7.00;94.10
22787;DHT22;63134;52.020;4.714;2022-12-07T00:37:07;7.00;93.90
22787;DHT22;63134;52.020;4.714;2022-12-07T00:39:52;7.00;93.80
22787;DHT22;63134;52.020;4.714;2022-12-07T00:42:38;6.80;93.60
22787;DHT22;63134;52.020;4.714;2022-12-07T00:45:25;6.80;93.60
22787;DHT22;63134;52.020;4.714;2022-12-07T00:48:10;6.70;93.60
22787;DHT22;63134;52.020;4.714;2022-12-07T00:50:56;6.70;93.80
22787;DHT22;63134;52.020;4.714;2022-12-07T00:53:42;6.80;94.20
22787;DHT22;63134;52.020;4.714;2022-12-07T00:56:28;6.90;94.30
22787;DHT22;63134;52.020;4.714;2022-12-07T00:59:14;6.90;94.20
22787;DHT22;63134;52.020;4.714;2022-12-07T01:02:00;7.00;94.40
22787;DHT22;63134;52.020;4.714;2022-12-07T01:04:45;7.10;94.60
22787;DHT22;63134;52.020;4.714;2022-12-07T01:07:31;7.20;94.60
22787;DHT22;63134;52.020;4.714;2022-12-07T01:10:16;7.30;94.60
22787;DHT22;63134;52.020;4.714;2022-12-07T01:13:02;7.40;94.60
22787;DHT22;63134;52.020;4.714;2022-12-07T01:15:48;7.40;94.50
22787;DHT22;63134;52.020;4.714;2022-12-07T01:18:35;7.40;94.40
22787;DHT22;63134;52.020;4.714;2022-12-07T01:21:23;7.40;94.20
22787;DHT22;63134;52.020;4.714;2022-12-07T01:24:10;7.30;94.00
22787;DHT22;63134;52.020;4.714;2022-12-07T01:26:56;7.30;94.10
22787;DHT22;63134;52.020;4.714;2022-12-07T01:29:43;7.30;94.10
22787;DHT22;63134;52.020;4.714;2022-12-07T01:32:29;7.30;94.00
22787;DHT22;63134;52.020;4.714;2022-12-07T01:35:14;7.30;94.00
22787;DHT22;63134;52.020;4.714;2022-12-07T01:38:02;7.30;94.00
22787;DHT22;63134;52.020;4.714;2022-12-07T01:40:54;7.30;94.10
22787;DHT22;63134;52.020;4.714;2022-12-07T01:46:59;7.40;94.10
22787;DHT22;63134;52.020;4.714;2022-12-07T01:49:48;7.30;93.90
22787;DHT22;63134;52.020;4.714;2022-12-07T01:52:35;7.20;93.60
22787;DHT22;63134;52.020;4.714;2022-12-07T01:55:21;7.10;93.50
22787;DHT22;63134;52.020;4.714;2022-12-07T01:58:09;7.00;93.30
22787;DHT22;63134;52.020;4.714;2022-12-07T02:00:55;6.90;93.40
22787;DHT22;63134;52.020;4.714;2022-12-07T02:03:46;6.90;93.40
22787;DHT22;63134;52.020;4.714;2022-12-07T02:06:31;7.00;93.60
22787;DHT22;63134;52.020;4.714;2022-12-07T02:09:17;7.10;93.90
22787;DHT22;63134;52.020;4.714;2022-12-07T02:12:02;7.10;93.90
22787;DHT22;63134;52.020;4.714;2022-12-07T02:14:50;7.20;93.90
22787;DHT22;63134;52.020;4.714;2022-12-07T02:27:46;7.00;93.50
22787;DHT22;63134;52.020;4.714;2022-12-07T02:30:35;7.00;93.60
22787;DHT22;63134;52.020;4.714;2022-12-07T02:33:30;7.00;93.70
22787;DHT22;63134;52.020;4.714;2022-12-07T02:36:28;7.00;93.70
22787;DHT22;63134;52.020;4.714;2022-12-07T02:39:34;7.00;93.80
22787;DHT22;63134;52.020;4.714;2022-12-07T02:42:34;7.00;93.70
22787;DHT22;63134;52.020;4.714;2022-12-07T02:45:22;7.10;93.80
22787;DHT22;63134;52.020;4.714;2022-12-07T02:48:16;7.10;93.90
22787;DHT22;63134;52.020;4.714;2022-12-07T02:51:02;7.20;93.90
22787;DHT22;63134;52.020;4.714;2022-12-07T02:53:48;7.30;94.10
22787;DHT22;63134;52.020;4.714;2022-12-07T02:56:44;7.40;94.00
22787;DHT22;63134;52.020;4.714;2022-12-07T02:59:49;7.40;94.00
22787;DHT22;63134;52.020;4.714;2022-12-07T03:02:53;7.40;93.40
22787;DHT22;63134;52.020;4.714;2022-12-07T03:08:57;7.20;93.40
22787;DHT22;63134;52.020;4.714;2022-12-07T03:11:52;7.30;93.70
22787;DHT22;63134;52.020;4.714;2022-12-07T03:14:56;7.30;93.30
22787;DHT22;63134;52.020;4.714;2022-12-07T03:17:45;7.20;93.30
22787;DHT22;63134;52.020;4.714;2022-12-07T03:20:35;7.20;93.50
22787;DHT22;63134;52.020;4.714;2022-12-07T03:23:27;7.10;93.30
22787;DHT22;63134;52.020;4.714;2022-12-07T03:26:15;7.10;93.00
22787;DHT22;63134;52.020;4.714;2022-12-07T03:29:24;7.00;93.00
22787;DHT22;63134;52.020;4.714;2022-12-07T03:37:56;6.90;93.30
22787;DHT22;63134;52.020;4.714;2022-12-07T03:41:05;7.00;93.60
22787;DHT22;63134;52.020;4.714;2022-12-07T03:43:54;7.00;93.50
22787;DHT22;63134;52.020;4.714;2022-12-07T03:47:05;7.10;93.50
22787;DHT22;63134;52.020;4.714;2022-12-07T03:50:04;7.10;93.50
22787;DHT22;63134;52.020;4.714;2022-12-07T03:52:55;7.00;93.50
22787;DHT22;63134;52.020;4.714;2022-12-07T03:55:44;7.00;93.30
22787;DHT22;63134;52.020;4.714;2022-12-07T03:58:32;6.90;93.40
22787;DHT22;63134;52.020;4.714;2022-12-07T04:01:19;6.90;93.40
22787;DHT22;63134;52.020;4.714;2022-12-07T04:04:04;6.90;93.40
22787;DHT22;63134;52.020;4.714;2022-12-07T04:06:50;6.90;93.40
22787;DHT22;63134;52.020;4.714;2022-12-07T04:09:35;6.90;93.20
22787;DHT22;63134;52.020;4.714;2022-12-07T04:12:22;6.90;93.10
22787;DHT22;63134;52.020;4.714;2022-12-07T04:15:10;6.80;93.00
22787;DHT22;63134;52.020;4.714;2022-12-07T04:17:56;6.70;93.20
22787;DHT22;63134;52.020;4.714;2022-12-07T04:20:46;6.60;92.90
22787;DHT22;63134;52.020;4.714;2022-12-07T04:23:31;6.50;92.80
22787;DHT22;63134;52.020;4.714;2022-12-07T04:26:17;6.50;92.90
22787;DHT22;63134;52.020;4.714;2022-12-07T04:29:06;6.40;93.00
22787;DHT22;63134;52.020;4.714;2022-12-07T04:31:53;6.40;93.00
22787;DHT22;63134;52.020;4.714;2022-12-07T04:34:38;6.40;93.20
22787;DHT22;63134;52.020;4.714;2022-12-07T04:37:27;6.50;93.20
22787;DHT22;63134;52.020;4.714;2022-12-07T04:40:12;6.50;93.50
22787;DHT22;63134;52.020;4.714;2022-12-07T04:42:59;6.60;93.60
22787;DHT22;63134;52.020;4.714;2022-12-07T04:45:50;6.60;93.60
22787;DHT22;63134;52.020;4.714;2022-12-07T04:48:36;6.60;93.50
22787;DHT22;63134;52.020;4.714;2022-12-07T04:51:26;6.60;93.40
22787;DHT22;63134;52.020;4.714;2022-12-07T04:54:13;6.60;93.40
22787;DHT22;63134;52.020;4.714;2022-12-07T04:56:59;6.60;93.60
22787;DHT22;63134;52.020;4.714;2022-12-07T04:59:57;6.70;93.70
22787;DHT22;63134;52.020;4.714;2022-12-07T05:02:42;6.80;93.80
22787;DHT22;63134;52.020;4.714;2022-12-07T05:05:34;6.90;93.80
22787;DHT22;63134;52.020;4.714;2022-12-07T05:08:20;6.90;93.70
22787;DHT22;63134;52.020;4.714;2022-12-07T05:11:06;7.00;93.60
22787;DHT22;63134;52.020;4.714;2022-12-07T05:13:54;7.00;93.50
22787;DHT22;63134;52.020;4.714;2022-12-07T05:16:40;6.90;93.20
22787;DHT22;63134;52.020;4.714;2022-12-07T05:19:26;6.90;93.00
22787;DHT22;63134;52.020;4.714;2022-12-07T05:22:12;6.80;92.90
22787;DHT22;63134;52.020;4.714;2022-12-07T05:24:58;6.80;92.80
22787;DHT22;63134;52.020;4.714;2022-12-07T05:27:44;6.70;92.60
22787;DHT22;63134;52.020;4.714;2022-12-07T05:30:29;6.60;92.60
22787;DHT22;63134;52.020;4.714;2022-12-07T05:33:16;6.60;92.60
22787;DHT22;63134;52.020;4.714;2022-12-07T05:36:02;6.50;92.70
22787;DHT22;63134;52.020;4.714;2022-12-07T05:38:51;6.50;92.80
22787;DHT22;63134;52.020;4.714;2022-12-07T05:41:36;6.60;93.10
22787;DHT22;63134;52.020;4.714;2022-12-07T05:44:45;6.70;93.30
22787;DHT22;63134;52.020;4.714;2022-12-07T05:47:31;6.90;93.40
22787;DHT22;63134;52.020;4.714;2022-12-07T05:50:16;6.90;93.40
22787;DHT22;63134;52.020;4.714;2022-12-07T05:53:17;6.90;93.20
22787;DHT22;63134;52.020;4.714;2022-12-07T05:56:07;6.80;92.80
22787;DHT22;63134;52.020;4.714;2022-12-07T05:59:03;6.70;92.60
22787;DHT22;63134;52.020;4.714;2022-12-07T06:02:10;6.60;92.50
22787;DHT22;63134;52.020;4.714;2022-12-07T06:04:56;6.40;92.30
22787;DHT22;63134;52.020;4.714;2022-12-07T06:07:41;6.40;92.30
22787;DHT22;63134;52.020;4.714;2022-12-07T06:10:26;6.30;92.50
22787;DHT22;63134;52.020;4.714;2022-12-07T06:13:18;6.30;92.40
22787;DHT22;63134;52.020;4.714;2022-12-07T06:16:05;6.30;92.40
22787;DHT22;63134;52.020;4.714;2022-12-07T06:18:50;6.30;92.50
22787;DHT22;63134;52.020;4.714;2022-12-07T06:21:36;6.20;92.20
22787;DHT22;63134;52.020;4.714;2022-12-07T06:24:24;6.10;92.20
22787;DHT22;63134;52.020;4.714;2022-12-07T06:27:10;6.00;92.10
22787;DHT22;63134;52.020;4.714;2022-12-07T06:29:55;5.90;91.90
22787;DHT22;63134;52.020;4.714;2022-12-07T06:32:40;5.80;92.20
22787;DHT22;63134;52.020;4.714;2022-12-07T06:35:26;5.80;92.20
22787;DHT22;63134;52.020;4.714;2022-12-07T06:38:12;5.80;92.60
22787;DHT22;63134;52.020;4.714;2022-12-07T06:40:57;5.70;92.30
22787;DHT22;63134;52.020;4.714;2022-12-07T06:43:43;5.70;92.40
22787;DHT22;63134;52.020;4.714;2022-12-07T06:46:32;5.70;92.40
22787;DHT22;63134;52.020;4.714;2022-12-07T06:49:23;5.70;92.60
22787;DHT22;63134;52.020;4.714;2022-12-07T06:52:08;5.80;92.90
22787;DHT22;63134;52.020;4.714;2022-12-07T06:54:54;5.80;93.20
22787;DHT22;63134;52.020;4.714;2022-12-07T06:57:39;6.00;93.60
22787;DHT22;63134;52.020;4.714;2022-12-07T07:00:25;6.00;93.30
22787;DHT22;63134;52.020;4.714;2022-12-07T07:03:11;6.20;93.60
22787;DHT22;63134;52.020;4.714;2022-12-07T07:05:56;6.20;93.50
22787;DHT22;63134;52.020;4.714;2022-12-07T07:08:50;6.20;93.30
22787;DHT22;63134;52.020;4.714;2022-12-07T07:11:35;6.20;93.10
22787;DHT22;63134;52.020;4.714;2022-12-07T07:14:23;6.20;93.10
22787;DHT22;63134;52.020;4.714;2022-12-07T07:17:09;6.10;93.00
22787;DHT22;63134;52.020;4.714;2022-12-07T07:19:57;6.10;92.90
22787;DHT22;63134;52.020;4.714;2022-12-07T07:22:43;6.00;92.70
22787;DHT22;63134;52.020;4.714;2022-12-07T07:25:28;5.90;92.70
22787;DHT22;63134;52.020;4.714;2022-12-07T07:28:14;5.90;92.70
22787;DHT22;63134;52.020;4.714;2022-12-07T07:31:00;5.80;92.70
22787;DHT22;63134;52.020;4.714;2022-12-07T07:33:46;5.80;92.80
22787;DHT22;63134;52.020;4.714;2022-12-07T07:36:32;5.80;92.80
22787;DHT22;63134;52.020;4.714;2022-12-07T07:39:17;5.80;92.80
22787;DHT22;63134;52.020;4.714;2022-12-07T07:42:03;5.80;92.90
22787;DHT22;63134;52.020;4.714;2022-12-07T07:44:50;5.80;93.20
22787;DHT22;63134;52.020;4.714;2022-12-07T07:47:38;6.00;93.50
22787;DHT22;63134;52.020;4.714;2022-12-07T07:50:24;6.10;93.60
22787;DHT22;63134;52.020;4.714;2022-12-07T07:53:15;6.20;93.70
22787;DHT22;63134;52.020;4.714;2022-12-07T07:56:01;6.30;93.70
22787;DHT22;63134;52.020;4.714;2022-12-07T07:58:46;6.40;93.70
22787;DHT22;63134;52.020;4.714;2022-12-07T08:01:32;6.50;93.70
22787;DHT22;63134;52.020;4.714;2022-12-07T08:04:18;6.60;93.70
22787;DHT22;63134;52.020;4.714;2022-12-07T08:07:03;6.50;93.30
22787;DHT22;63134;52.020;4.714;2022-12-07T08:09:49;6.50;93.10
22787;DHT22;63134;52.020;4.714;2022-12-07T08:12:39;6.40;93.00
22787;DHT22;63134;52.020;4.714;2022-12-07T08:15:46;6.40;93.20
22787;DHT22;63134;52.020;4.714;2022-12-07T08:18:35;6.40;92.90
22787;DHT22;63134;52.020;4.714;2022-12-07T08:21:24;6.30;92.80
22787;DHT22;63134;52.020;4.714;2022-12-07T08:24:10;6.30;92.80
22787;DHT22;63134;52.020;4.714;2022-12-07T08:26:55;6.20;92.70
22787;DHT22;63134;52.020;4.714;2022-12-07T08:29:43;6.20;92.60
22787;DHT22;63134;52.020;4.714;2022-12-07T08:32:29;6.20;92.80
22787;DHT22;63134;52.020;4.714;2022-12-07T08:35:15;6.30;93.20
22787;DHT22;63134;52.020;4.714;2022-12-07T08:38:01;6.50;93.50
22787;DHT22;63134;52.020;4.714;2022-12-07T08:40:55;6.50;93.20
22787;DHT22;63134;52.020;4.714;2022-12-07T08:43:41;6.50;93.20
22787;DHT22;63134;52.020;4.714;2022-12-07T08:46:50;6.60;93.20
22787;DHT22;63134;52.020;4.714;2022-12-07T08:49:41;6.60;93.10
22787;DHT22;63134;52.020;4.714;2022-12-07T08:52:26;6.60;93.20
22787;DHT22;63134;52.020;4.714;2022-12-07T08:55:15;6.70;93.30
22787;DHT22;63134;52.020;4.714;2022-12-07T08:58:02;6.80;93.40
22787;DHT22;63134;52.020;4.714;2022-12-07T09:00:48;7.00;93.40
22787;DHT22;63134;52.020;4.714;2022-12-07T09:03:33;7.00;93.30
22787;DHT22;63134;52.020;4.714;2022-12-07T09:06:19;7.10;93.20
22787;DHT22;63134;52.020;4.714;2022-12-07T09:09:06;7.10;93.20
22787;DHT22;63134;52.020;4.714;2022-12-07T09:11:52;7.20;93.30
22787;DHT22;63134;52.020;4.714;2022-12-07T09:14:38;7.30;93.40
22787;DHT22;63134;52.020;4.714;2022-12-07T09:17:24;7.50;93.50
22787;DHT22;63134;52.020;4.714;2022-12-07T09:20:10;7.70;93.50
22787;DHT22;63134;52.020;4.714;2022-12-07T09:22:55;7.90;93.60
22787;DHT22;63134;52.020;4.714;2022-12-07T09:25:41;8.00;93.70
22787;DHT22;63134;52.020;4.714;2022-12-07T09:28:27;8.10;92.80
22787;DHT22;63134;52.020;4.714;2022-12-07T09:31:15;8.30;93.00
22787;DHT22;63134;52.020;4.714;2022-12-07T09:34:09;8.30;92.10
22787;DHT22;63134;52.020;4.714;2022-12-07T09:36:55;8.30;92.30
22787;DHT22;63134;52.020;4.714;2022-12-07T09:39:41;8.30;92.30
22787;DHT22;63134;52.020;4.714;2022-12-07T09:42:39;8.30;92.20
22787;DHT22;63134;52.020;4.714;2022-12-07T09:45:33;8.40;92.30
22787;DHT22;63134;52.020;4.714;2022-12-07T09:48:36;8.40;92.20
22787;DHT22;63134;52.020;4.714;2022-12-07T09:51:24;8.40;91.80
22787;DHT22;63134;52.020;4.714;2022-12-07T09:54:15;8.40;91.50
22787;DHT22;63134;52.020;4.714;2022-12-07T09:57:01;8.30;91.50
22787;DHT22;63134;52.020;4.714;2022-12-07T09:59:46;8.20;91.40
22787;DHT22;63134;52.020;4.714;2022-12-07T10:02:39;8.10;91.10
22787;DHT22;63134;52.020;4.714;2022-12-07T10:05:34;8.00;91.20
22787;DHT22;63134;52.020;4.714;2022-12-07T10:08:25;8.00;91.20
22787;DHT22;63134;52.020;4.714;2022-12-07T10:11:11;8.00;91.30
22787;DHT22;63134;52.020;4.714;2022-12-07T10:14:12;8.00;91.50
22787;DHT22;63134;52.020;4.714;2022-12-07T10:16:58;8.20;91.70
22787;DHT22;63134;52.020;4.714;2022-12-07T10:19:43;8.40;92.10
22787;DHT22;63134;52.020;4.714;2022-12-07T10:22:28;8.70;92.50
22787;DHT22;63134;52.020;4.714;2022-12-07T10:25:20;8.80;92.00
22787;DHT22;63134;52.020;4.714;2022-12-07T10:33:54;8.60;90.80
22787;DHT22;63134;52.020;4.714;2022-12-07T10:36:40;8.50;90.90
22787;DHT22;63134;52.020;4.714;2022-12-07T10:39:26;8.50;90.70
22787;DHT22;63134;52.020;4.714;2022-12-07T10:42:22;8.50;90.70
22787;DHT22;63134;52.020;4.714;2022-12-07T10:48:18;8.80;91.40
22787;DHT22;63134;52.020;4.714;2022-12-07T10:57:37;9.60;91.10
22787;DHT22;63134;52.020;4.714;2022-12-07T11:00:35;9.60;90.80
22787;DHT22;63134;52.020;4.714;2022-12-07T11:06:39;9.50;90.30
22787;DHT22;63134;52.020;4.714;2022-12-07T11:10:03;9.50;89.80
22787;DHT22;63134;52.020;4.714;2022-12-07T11:22:26;11.30;91.00
22787;DHT22;63134;52.020;4.714;2022-12-07T11:25:32;12.00;91.10
22787;DHT22;63134;52.020;4.714;2022-12-07T11:31:37;13.30;90.50
22787;DHT22;63134;52.020;4.714;2022-12-07T11:37:21;14.70;80.00
22787;DHT22;63134;52.020;4.714;2022-12-07T11:40:25;14.90;77.80
22787;DHT22;63134;52.020;4.714;2022-12-07T11:43:32;15.10;77.40
22787;DHT22;63134;52.020;4.714;2022-12-07T11:47:09;14.90;70.80
22787;DHT22;63134;52.020;4.714;2022-12-07T11:49:37;14.40;70.00
22787;DHT22;63134;52.020;4.714;2022-12-07T11:52:49;14.10;70.50
22787;DHT22;63134;52.020;4.714;2022-12-07T11:55:49;13.70;71.00
22787;DHT22;63134;52.020;4.714;2022-12-07T12:01:45;13.10;71.00
22787;DHT22;63134;52.020;4.714;2022-12-07T12:04:54;12.90;71.10
22787;DHT22;63134;52.020;4.714;2022-12-07T12:07:42;12.50;69.40
22787;DHT22;63134;52.020;4.714;2022-12-07T12:11:35;12.20;71.30
22787;DHT22;63134;52.020;4.714;2022-12-07T12:17:31;11.70;70.40
22787;DHT22;63134;52.020;4.714;2022-12-07T12:20:55;11.30;71.40
22787;DHT22;63134;52.020;4.714;2022-12-07T12:23:58;10.90;72.90
22787;DHT22;63134;52.020;4.714;2022-12-07T12:27:01;10.80;73.90
22787;DHT22;63134;52.020;4.714;2022-12-07T12:29:53;10.60;74.50
22787;DHT22;63134;52.020;4.714;2022-12-07T12:32:42;10.50;74.90
22787;DHT22;63134;52.020;4.714;2022-12-07T12:35:36;10.40;75.00
22787;DHT22;63134;52.020;4.714;2022-12-07T12:38:52;10.30;75.40
22787;DHT22;63134;52.020;4.714;2022-12-07T12:41:54;10.20;76.20
22787;DHT22;63134;52.020;4.714;2022-12-07T12:44:44;10.10;75.50
22787;DHT22;63134;52.020;4.714;2022-12-07T12:47:58;10.10;75.80
22787;DHT22;63134;52.020;4.714;2022-12-07T12:50:43;10.20;75.80
22787;DHT22;63134;52.020;4.714;2022-12-07T12:53:29;10.30;76.60
22787;DHT22;63134;52.020;4.714;2022-12-07T12:56:30;10.60;76.50
22787;DHT22;63134;52.020;4.714;2022-12-07T12:59:29;11.30;78.40
22787;DHT22;63134;52.020;4.714;2022-12-07T13:02:28;12.30;78.80
22787;DHT22;63134;52.020;4.714;2022-12-07T13:05:16;13.30;74.40
22787;DHT22;63134;52.020;4.714;2022-12-07T13:08:19;13.90;72.50
22787;DHT22;63134;52.020;4.714;2022-12-07T13:11:29;15.60;72.40
22787;DHT22;63134;52.020;4.714;2022-12-07T13:20:44;19.70;59.00
22787;DHT22;63134;52.020;4.714;2022-12-07T13:23:52;19.40;53.10
22787;DHT22;63134;52.020;4.714;2022-12-07T13:26:42;18.80;51.10
22787;DHT22;63134;52.020;4.714;2022-12-07T13:29:36;17.90;50.70
22787;DHT22;63134;52.020;4.714;2022-12-07T13:32:26;17.00;51.50
22787;DHT22;63134;52.020;4.714;2022-12-07T13:35:32;16.20;52.20
22787;DHT22;63134;52.020;4.714;2022-12-07T13:38:33;15.40;54.30
22787;DHT22;63134;52.020;4.714;2022-12-07T13:41:26;14.90;55.40
22787;DHT22;63134;52.020;4.714;2022-12-07T13:44:16;14.60;56.60
22787;DHT22;63134;52.020;4.714;2022-12-07T13:47:16;14.30;57.30
22787;DHT22;63134;52.020;4.714;2022-12-07T13:50:25;14.00;57.80
22787;DHT22;63134;52.020;4.714;2022-12-07T13:53:13;13.60;58.90
22787;DHT22;63134;52.020;4.714;2022-12-07T13:56:00;13.40;60.30
22787;DHT22;63134;52.020;4.714;2022-12-07T13:58:46;13.30;60.70
22787;DHT22;63134;52.020;4.714;2022-12-07T14:01:32;14.30;64.30
22787;DHT22;63134;52.020;4.714;2022-12-07T14:07:24;17.00;59.60
22787;DHT22;63134;52.020;4.714;2022-12-07T14:10:25;18.10;55.80
22787;DHT22;63134;52.020;4.714;2022-12-07T14:13:28;17.50;51.60
22787;DHT22;63134;52.020;4.714;2022-12-07T14:22:36;15.30;53.20
22787;DHT22;63134;52.020;4.714;2022-12-07T14:25:24;14.70;54.80
22787;DHT22;63134;52.020;4.714;2022-12-07T14:28:28;14.40;56.00
22787;DHT22;63134;52.020;4.714;2022-12-07T14:31:21;14.00;56.30
22787;DHT22;63134;52.020;4.714;2022-12-07T14:34:15;13.60;57.10
22787;DHT22;63134;52.020;4.714;2022-12-07T14:37:01;13.30;57.90
22787;DHT22;63134;52.020;4.714;2022-12-07T14:39:51;13.00;58.10
22787;DHT22;63134;52.020;4.714;2022-12-07T14:42:40;12.70;58.50
22787;DHT22;63134;52.020;4.714;2022-12-07T14:45:27;12.30;59.50
22787;DHT22;63134;52.020;4.714;2022-12-07T14:48:16;12.10;59.70
22787;DHT22;63134;52.020;4.714;2022-12-07T14:51:21;11.80;60.30
22787;DHT22;63134;52.020;4.714;2022-12-07T14:54:27;11.50;61.50
22787;DHT22;63134;52.020;4.714;2022-12-07T14:57:15;11.20;61.70
22787;DHT22;63134;52.020;4.714;2022-12-07T15:00:01;10.80;62.50
22787;DHT22;63134;52.020;4.714;2022-12-07T15:02:47;10.40;63.70
22787;DHT22;63134;52.020;4.714;2022-12-07T15:05:33;10.20;65.20
22787;DHT22;63134;52.020;4.714;2022-12-07T15:08:20;9.90;65.90
22787;DHT22;63134;52.020;4.714;2022-12-07T15:11:05;9.60;67.00
22787;DHT22;63134;52.020;4.714;2022-12-07T15:13:50;9.40;68.00
22787;DHT22;63134;52.020;4.714;2022-12-07T15:16:54;9.30;68.90
22787;DHT22;63134;52.020;4.714;2022-12-07T15:20:00;9.10;69.60
22787;DHT22;63134;52.020;4.714;2022-12-07T15:22:48;8.90;70.50
22787;DHT22;63134;52.020;4.714;2022-12-07T15:25:34;8.70;71.40
22787;DHT22;63134;52.020;4.714;2022-12-07T15:28:19;8.60;72.50
22787;DHT22;63134;52.020;4.714;2022-12-07T15:31:14;8.50;72.90
22787;DHT22;63134;52.020;4.714;2022-12-07T15:34:20;8.30;73.90
22787;DHT22;63134;52.020;4.714;2022-12-07T15:37:05;8.20;74.90
22787;DHT22;63134;52.020;4.714;2022-12-07T15:39:50;8.10;75.50
22787;DHT22;63134;52.020;4.714;2022-12-07T15:42:40;8.10;76.20
22787;DHT22;63134;52.020;4.714;2022-12-07T15:45:25;8.00;76.80
22787;DHT22;63134;52.020;4.714;2022-12-07T15:48:11;8.00;77.60
22787;DHT22;63134;52.020;4.714;2022-12-07T15:51:13;7.90;78.00
22787;DHT22;63134;52.020;4.714;2022-12-07T15:53:59;8.00;78.40
22787;DHT22;63134;52.020;4.714;2022-12-07T15:56:44;7.90;79.00
22787;DHT22;63134;52.020;4.714;2022-12-07T15:59:30;7.90;79.60
22787;DHT22;63134;52.020;4.714;2022-12-07T16:02:16;7.90;79.90
22787;DHT22;63134;52.020;4.714;2022-12-07T16:05:07;7.90;80.00
22787;DHT22;63134;52.020;4.714;2022-12-07T16:07:53;7.90;80.00
22787;DHT22;63134;52.020;4.714;2022-12-07T16:10:38;7.90;80.00
22787;DHT22;63134;52.020;4.714;2022-12-07T16:13:27;7.90;80.00
22787;DHT22;63134;52.020;4.714;2022-12-07T16:16:15;7.90;80.00
22787;DHT22;63134;52.020;4.714;2022-12-07T16:19:01;7.80;79.90
22787;DHT22;63134;52.020;4.714;2022-12-07T16:21:47;7.80;79.90
22787;DHT22;63134;52.020;4.714;2022-12-07T16:24:33;7.80;79.90
22787;DHT22;63134;52.020;4.714;2022-12-07T16:27:18;7.80;80.00
22787;DHT22;63134;52.020;4.714;2022-12-07T16:30:05;7.70;80.10
22787;DHT22;63134;52.020;4.714;2022-12-07T16:32:51;7.70;80.20
22787;DHT22;63134;52.020;4.714;2022-12-07T16:35:40;7.70;80.30
22787;DHT22;63134;52.020;4.714;2022-12-07T16:38:26;7.70;80.50
22787;DHT22;63134;52.020;4.714;2022-12-07T16:41:12;7.60;80.50
22787;DHT22;63134;52.020;4.714;2022-12-07T16:44:03;7.60;80.70
22787;DHT22;63134;52.020;4.714;2022-12-07T16:46:48;7.60;80.90
22787;DHT22;63134;52.020;4.714;2022-12-07T16:49:34;7.60;81.10
22787;DHT22;63134;52.020;4.714;2022-12-07T16:52:20;7.50;81.20
22787;DHT22;63134;52.020;4.714;2022-12-07T16:55:07;7.50;81.50
22787;DHT22;63134;52.020;4.714;2022-12-07T16:57:53;7.50;81.70
22787;DHT22;63134;52.020;4.714;2022-12-07T17:00:45;7.50;81.90
22787;DHT22;63134;52.020;4.714;2022-12-07T17:03:30;7.50;82.20
22787;DHT22;63134;52.020;4.714;2022-12-07T17:06:21;7.50;82.30
22787;DHT22;63134;52.020;4.714;2022-12-07T17:09:08;7.40;82.40
22787;DHT22;63134;52.020;4.714;2022-12-07T17:11:54;7.40;82.50
22787;DHT22;63134;52.020;4.714;2022-12-07T17:14:40;7.40;82.50
22787;DHT22;63134;52.020;4.714;2022-12-07T17:17:45;7.40;82.70
22787;DHT22;63134;52.020;4.714;2022-12-07T17:20:30;7.40;83.00
22787;DHT22;63134;52.020;4.714;2022-12-07T17:23:18;7.40;83.10
22787;DHT22;63134;52.020;4.714;2022-12-07T17:26:12;7.40;83.30
22787;DHT22;63134;52.020;4.714;2022-12-07T17:28:58;7.30;84.00
22787;DHT22;63134;52.020;4.714;2022-12-07T17:31:45;7.40;83.50
22787;DHT22;63134;52.020;4.714;2022-12-07T17:34:35;7.30;83.70
22787;DHT22;63134;52.020;4.714;2022-12-07T17:37:22;7.40;83.70
22787;DHT22;63134;52.020;4.714;2022-12-07T17:40:11;7.40;84.00
22787;DHT22;63134;52.020;4.714;2022-12-07T17:42:56;7.40;84.10
22787;DHT22;63134;52.020;4.714;2022-12-07T17:45:42;7.50;84.30
22787;DHT22;63134;52.020;4.714;2022-12-07T17:48:28;7.50;84.00
22787;DHT22;63134;52.020;4.714;2022-12-07T17:51:13;7.50;83.90
22787;DHT22;63134;52.020;4.714;2022-12-07T17:54:17;7.50;84.00
22787;DHT22;63134;52.020;4.714;2022-12-07T17:57:03;7.50;83.70
22787;DHT22;63134;52.020;4.714;2022-12-07T17:59:49;7.50;83.60
22787;DHT22;63134;52.020;4.714;2022-12-07T18:02:39;7.50;83.70
22787;DHT22;63134;52.020;4.714;2022-12-07T18:05:25;7.50;84.30
22787;DHT22;63134;52.020;4.714;2022-12-07T18:08:10;7.50;83.50
22787;DHT22;63134;52.020;4.714;2022-12-07T18:10:58;7.50;83.40
22787;DHT22;63134;52.020;4.714;2022-12-07T18:13:44;7.50;83.50
22787;DHT22;63134;52.020;4.714;2022-12-07T18:16:33;7.50;83.60
22787;DHT22;63134;52.020;4.714;2022-12-07T18:19:19;7.50;83.70
22787;DHT22;63134;52.020;4.714;2022-12-07T18:22:05;7.50;83.80
22787;DHT22;63134;52.020;4.714;2022-12-07T18:24:50;7.40;84.00
22787;DHT22;63134;52.020;4.714;2022-12-07T18:27:36;7.40;83.90
22787;DHT22;63134;52.020;4.714;2022-12-07T18:30:22;7.40;84.00
22787;DHT22;63134;52.020;4.714;2022-12-07T18:33:31;7.40;84.40
22787;DHT22;63134;52.020;4.714;2022-12-07T18:36:17;7.50;84.40
22787;DHT22;63134;52.020;4.714;2022-12-07T18:39:15;7.50;84.40
22787;DHT22;63134;52.020;4.714;2022-12-07T18:42:01;7.50;84.60
22787;DHT22;63134;52.020;4.714;2022-12-07T18:44:49;7.60;84.60
22787;DHT22;63134;52.020;4.714;2022-12-07T18:47:34;7.50;84.80
22787;DHT22;63134;52.020;4.714;2022-12-07T18:50:20;7.40;85.00
22787;DHT22;63134;52.020;4.714;2022-12-07T18:53:09;7.40;85.20
22787;DHT22;63134;52.020;4.714;2022-12-07T18:56:27;7.40;85.60
22787;DHT22;63134;52.020;4.714;2022-12-07T18:59:12;7.40;85.60
22787;DHT22;63134;52.020;4.714;2022-12-07T19:02:17;7.40;85.70
22787;DHT22;63134;52.020;4.714;2022-12-07T19:05:10;7.30;85.50
22787;DHT22;63134;52.020;4.714;2022-12-07T19:08:00;7.30;85.50
22787;DHT22;63134;52.020;4.714;2022-12-07T19:10:46;7.20;85.70
22787;DHT22;63134;52.020;4.714;2022-12-07T19:13:32;7.10;85.80
22787;DHT22;63134;52.020;4.714;2022-12-07T19:16:18;7.10;86.00
22787;DHT22;63134;52.020;4.714;2022-12-07T19:19:03;7.10;86.30
22787;DHT22;63134;52.020;4.714;2022-12-07T19:21:55;7.00;86.30
22787;DHT22;63134;52.020;4.714;2022-12-07T19:24:42;7.00;86.30
22787;DHT22;63134;52.020;4.714;2022-12-07T19:27:30;7.00;86.30